CheckWX is a tool to help pilots better visualize weather data.  It is not intended as a substitute for an official pre-flight weather briefing.

07:31:01 UTC

EPSC TAF
Szczecin-Goleniów "Solidarność" Airport
Goleniow, Poland
TAF EPSC 170530Z 1706/1806 VRB02KT CAVOK

Jun-17@
06:00 UTC

Jun-17 @ 06:00 UTC

Jun-18@
06:00 UTC

Jun-18 @ 06:00 UTC

TAF EPSC 170530Z 1706/1806 VRB02KT CAVOK
Wind
  • Variable at 2 KTS
Conditions
No significant weather
Cloud Levels
  • No significant clouds